createdAt,value
2022-08-17T00:02:24.175Z,6.90
2022-08-17T00:05:29.632Z,7.15
2022-08-17T00:08:34.170Z,7.13
2022-08-17T00:11:36.793Z,7.10
2022-08-17T00:14:40.068Z,7.50
2022-08-17T00:17:43.219Z,7.07
2022-08-17T00:20:46.114Z,7.32
2022-08-17T00:23:49.519Z,7.20
2022-08-17T00:26:52.290Z,7.22
2022-08-17T00:29:55.490Z,7.05
2022-08-17T00:33:22.741Z,7.53
2022-08-17T00:36:21.094Z,7.40
2022-08-17T00:39:24.035Z,7.47
2022-08-17T00:42:30.932Z,7.40
2022-08-17T00:45:33.813Z,7.53
2022-08-17T00:48:36.686Z,7.57
2022-08-17T00:51:39.284Z,7.50
2022-08-17T00:54:42.400Z,7.80
2022-08-17T00:57:45.255Z,7.50
2022-08-17T01:00:47.989Z,6.90
2022-08-17T01:03:50.625Z,7.68
2022-08-17T01:06:53.043Z,7.80
2022-08-17T01:09:55.773Z,7.68
2022-08-17T01:12:58.305Z,7.50
2022-08-17T01:16:01.226Z,7.55
2022-08-17T01:19:03.873Z,7.28
2022-08-17T01:22:06.483Z,7.60
2022-08-17T01:25:09.113Z,7.68
2022-08-17T01:28:12.035Z,7.68
2022-08-17T01:31:34.709Z,7.72
2022-08-17T01:34:43.580Z,7.93
2022-08-17T01:37:53.349Z,7.30
2022-08-17T01:40:57.043Z,7.78
2022-08-17T01:44:01.218Z,7.30
2022-08-17T01:47:04.405Z,7.88
2022-08-17T01:50:07.335Z,7.47
2022-08-17T01:53:09.972Z,8.02
2022-08-17T01:56:12.261Z,7.95
2022-08-17T01:59:14.777Z,8.00
2022-08-17T02:02:31.412Z,7.53
2022-08-17T02:05:34.821Z,7.78
2022-08-17T02:08:39.436Z,7.50
2022-08-17T02:12:00.052Z,7.57
2022-08-17T02:15:22.302Z,7.60
2022-08-17T02:18:25.135Z,8.20
2022-08-17T02:21:28.092Z,8.15
2022-08-17T02:24:58.834Z,7.78
2022-08-17T02:27:53.632Z,7.35
2022-08-17T02:31:00.816Z,7.35
2022-08-17T02:34:05.436Z,7.20
2022-08-17T02:37:08.145Z,7.60
2022-08-17T02:40:10.393Z,7.47
2022-08-17T02:43:12.615Z,7.43
2022-08-17T02:46:14.769Z,7.25
2022-08-17T02:49:17.634Z,7.57
2022-08-17T02:52:43.079Z,7.35
2022-08-17T02:55:42.839Z,7.63
2022-08-17T02:58:45.308Z,7.40
2022-08-17T03:01:47.790Z,7.57
2022-08-17T03:04:50.886Z,7.40
2022-08-17T03:07:53.813Z,7.50
2022-08-17T03:10:56.565Z,7.43
2022-08-17T03:13:59.812Z,7.50
2022-08-17T03:17:02.881Z,7.68
2022-08-17T03:20:06.507Z,7.35
2022-08-17T03:23:09.208Z,7.57
2022-08-17T03:26:15.475Z,7.20
2022-08-17T03:29:19.906Z,7.45
2022-08-17T03:32:22.318Z,7.32
2022-08-17T03:35:25.275Z,7.05
2022-08-17T03:38:27.687Z,7.88
2022-08-17T03:41:30.548Z,7.30
2022-08-17T03:44:33.691Z,7.65
2022-08-17T03:47:36.482Z,7.78
2022-08-17T03:50:39.715Z,7.20
2022-08-17T03:53:42.304Z,7.72
2022-08-17T03:56:46.012Z,7.43
2022-08-17T03:59:48.526Z,7.28
2022-08-17T04:02:50.939Z,7.75
2022-08-17T04:05:54.477Z,7.13
2022-08-17T04:08:56.802Z,7.50
2022-08-17T04:12:02.369Z,7.13
2022-08-17T04:15:08.267Z,7.38
2022-08-17T04:18:11.160Z,7.13
2022-08-17T04:21:14.397Z,7.55
2022-08-17T04:24:17.606Z,7.43
2022-08-17T04:27:20.603Z,7.22
2022-08-17T04:30:22.797Z,7.35
2022-08-17T04:33:25.790Z,7.43
2022-08-17T04:36:29.058Z,12.77
2022-08-17T04:39:33.853Z,9.50
2022-08-17T04:42:36.282Z,9.77
2022-08-17T04:45:39.045Z,9.88
2022-08-17T04:48:42.289Z,10.20
2022-08-17T04:51:55.666Z,10.98
2022-08-17T04:54:59.252Z,11.07
2022-08-17T04:58:01.510Z,11.38
2022-08-17T05:01:04.068Z,11.07
2022-08-17T05:04:34.489Z,11.20
2022-08-17T05:07:31.573Z,12.23
2022-08-17T05:10:34.585Z,10.98
2022-08-17T05:13:39.911Z,11.27
2022-08-17T05:16:42.927Z,11.73
2022-08-17T05:19:51.370Z,11.00
2022-08-17T05:22:54.664Z,10.90
2022-08-17T05:25:57.267Z,10.73
2022-08-17T05:29:02.801Z,11.85
2022-08-17T05:32:39.509Z,11.40
2022-08-17T05:35:28.426Z,11.98
2022-08-17T05:38:30.614Z,11.98
2022-08-17T05:41:33.267Z,15.20
2022-08-17T05:44:35.871Z,16.55
2022-08-17T05:47:38.398Z,17.85
2022-08-17T05:50:41.242Z,17.38
2022-08-17T05:53:44.310Z,16.50
2022-08-17T05:56:47.130Z,14.60
2022-08-17T05:59:50.053Z,14.02
2022-08-17T06:02:53.596Z,14.95
2022-08-17T06:05:56.575Z,13.07
2022-08-17T06:08:59.523Z,13.95
2022-08-17T06:12:02.041Z,15.68
2022-08-17T06:15:05.001Z,13.13
2022-08-17T06:18:08.321Z,18.17
2022-08-17T06:21:11.510Z,14.75
2022-08-17T06:24:14.388Z,16.27
2022-08-17T06:27:17.048Z,17.20
2022-08-17T06:30:19.707Z,17.63
2022-08-17T06:33:22.311Z,18.92
2022-08-17T06:36:25.247Z,18.98
2022-08-17T06:39:28.357Z,18.17
2022-08-17T06:42:59.889Z,16.90
2022-08-17T06:45:53.928Z,14.75
2022-08-17T06:48:56.841Z,17.20
2022-08-17T06:51:59.960Z,14.95
2022-08-17T06:55:03.499Z,14.85
2022-08-17T06:58:16.423Z,16.45
2022-08-17T07:01:19.131Z,16.42
2022-08-17T07:04:21.836Z,19.90
2022-08-17T07:07:24.381Z,19.65
2022-08-17T07:10:27.146Z,20.85
2022-08-17T07:13:30.030Z,20.77
2022-08-17T07:16:31.997Z,20.95
2022-08-17T07:19:34.986Z,20.48
2022-08-17T07:22:55.217Z,20.52
2022-08-17T07:26:01.075Z,20.02
2022-08-17T07:29:04.058Z,20.55
2022-08-17T07:32:06.934Z,21.95
2022-08-17T07:35:10.685Z,22.05
2022-08-17T07:38:25.349Z,20.05
2022-08-17T07:41:57.663Z,19.65
2022-08-17T07:44:52.760Z,19.75
2022-08-17T07:47:55.661Z,19.25
2022-08-17T07:50:58.184Z,19.73
2022-08-17T07:54:13.539Z,19.25
2022-08-17T07:57:17.025Z,20.48
2022-08-17T08:00:19.250Z,18.25
2022-08-17T08:03:33.473Z,18.80
2022-08-17T08:06:36.038Z,19.13
2022-08-17T08:09:38.597Z,18.85
2022-08-17T08:12:41.760Z,19.02
2022-08-17T08:15:44.988Z,17.38
2022-08-17T08:18:55.915Z,18.40
2022-08-17T08:21:59.516Z,18.15
2022-08-17T08:25:02.221Z,17.65
2022-08-17T08:28:04.662Z,17.58
2022-08-17T08:31:07.433Z,17.42
2022-08-17T08:35:00.688Z,18.33
2022-08-17T08:37:35.773Z,16.23
2022-08-17T08:40:42.542Z,13.77
2022-08-17T08:43:48.347Z,13.10
2022-08-17T08:46:53.375Z,13.48
2022-08-17T08:50:03.830Z,12.60
2022-08-17T08:53:06.991Z,12.18
2022-08-17T08:56:09.334Z,13.25
2022-08-17T08:59:12.150Z,12.98
2022-08-17T09:02:14.687Z,12.85
2022-08-17T09:05:17.993Z,12.20
2022-08-17T09:08:20.880Z,12.35
2022-08-17T09:11:23.560Z,12.80
2022-08-17T09:14:28.901Z,12.90
2022-08-17T09:17:31.978Z,11.70
2022-08-17T09:20:34.556Z,11.50
2022-08-17T09:23:37.658Z,10.75
2022-08-17T09:26:40.668Z,11.90
2022-08-17T09:29:43.987Z,12.80
2022-08-17T09:32:47.288Z,12.65
2022-08-17T09:35:49.859Z,13.40
2022-08-17T09:38:53.491Z,13.05
2022-08-17T09:41:58.106Z,11.73
2022-08-17T09:45:01.430Z,12.85
2022-08-17T09:48:04.372Z,12.10
2022-08-17T09:51:07.605Z,11.27
2022-08-17T09:54:37.414Z,11.68
2022-08-17T09:57:32.657Z,11.52
2022-08-17T10:00:35.390Z,14.73
2022-08-17T10:03:38.138Z,14.75
2022-08-17T10:06:40.766Z,15.55
2022-08-17T10:09:43.446Z,14.93
2022-08-17T10:12:47.090Z,14.82
2022-08-17T10:15:50.356Z,12.35
2022-08-17T10:18:53.453Z,11.65
2022-08-17T10:22:01.122Z,11.57
2022-08-17T10:25:23.562Z,11.63
2022-08-17T10:28:29.725Z,11.20
2022-08-17T10:31:35.173Z,10.55
2022-08-17T10:34:41.550Z,9.93
2022-08-17T10:37:44.746Z,15.18
2022-08-17T10:40:47.772Z,13.30
2022-08-17T10:44:36.766Z,12.15
2022-08-17T10:47:12.817Z,11.07
2022-08-17T10:50:15.426Z,10.30
2022-08-17T10:53:19.987Z,11.43
2022-08-17T10:56:23.186Z,11.23
2022-08-17T10:59:25.453Z,11.32
2022-08-17T11:02:28.548Z,11.73
2022-08-17T11:05:31.559Z,13.00
2022-08-17T11:08:34.297Z,15.50
2022-08-17T11:11:37.077Z,14.15
2022-08-17T11:14:40.079Z,13.35
2022-08-17T11:17:43.588Z,13.90
2022-08-17T11:20:45.769Z,15.93
2022-08-17T11:23:48.515Z,15.13
2022-08-17T11:26:51.522Z,13.57
2022-08-17T11:30:01.282Z,13.32
2022-08-17T11:33:06.055Z,15.48
2022-08-17T11:36:09.343Z,13.50
2022-08-17T11:39:12.240Z,14.68
2022-08-17T11:42:17.707Z,16.20
2022-08-17T11:45:31.889Z,14.38
2022-08-17T11:48:35.054Z,15.50
2022-08-17T11:51:38.478Z,15.55
2022-08-17T11:54:41.095Z,13.30
2022-08-17T11:57:44.419Z,12.80
2022-08-17T12:00:46.935Z,13.00
2022-08-17T12:03:54.003Z,12.13
2022-08-17T12:06:58.530Z,12.25
2022-08-17T12:10:01.055Z,10.85
2022-08-17T12:13:04.048Z,13.45
2022-08-17T12:16:07.408Z,13.68
2022-08-17T12:19:10.279Z,12.05
2022-08-17T12:22:12.989Z,12.80
2022-08-17T12:25:15.297Z,11.88
2022-08-17T12:28:20.093Z,12.90
2022-08-17T12:31:23.217Z,13.10
2022-08-17T12:34:25.891Z,12.68
2022-08-17T12:37:29.049Z,12.85
2022-08-17T12:40:32.576Z,12.55
2022-08-17T12:43:35.571Z,12.13
2022-08-17T12:46:37.874Z,12.30
2022-08-17T12:49:40.559Z,13.45
2022-08-17T12:52:43.095Z,12.68
2022-08-17T12:55:47.363Z,12.30
2022-08-17T12:58:51.268Z,13.32
2022-08-17T13:01:53.885Z,12.40
2022-08-17T13:04:56.968Z,11.40
2022-08-17T13:08:00.323Z,11.48
2022-08-17T13:11:03.753Z,12.32
2022-08-17T13:14:06.768Z,12.50
2022-08-17T13:17:13.373Z,11.90
2022-08-17T13:20:16.485Z,11.75
2022-08-17T13:23:19.414Z,12.32
2022-08-17T13:26:22.440Z,12.25
2022-08-17T13:29:25.442Z,12.00
2022-08-17T13:32:28.241Z,12.43
2022-08-17T13:35:34.466Z,12.35
2022-08-17T13:38:42.020Z,13.13
2022-08-17T13:41:44.179Z,12.80
2022-08-17T13:44:46.765Z,12.38
2022-08-17T13:47:49.571Z,12.52
2022-08-17T13:50:52.666Z,13.30
2022-08-17T13:53:55.076Z,14.43
2022-08-17T13:56:57.541Z,12.77
2022-08-17T14:00:00.664Z,13.57
2022-08-17T14:03:03.658Z,18.08
2022-08-17T14:06:06.492Z,22.73
2022-08-17T14:09:09.322Z,21.25
2022-08-17T14:12:12.032Z,21.90
2022-08-17T14:15:14.522Z,22.33
2022-08-17T14:18:17.767Z,22.42
2022-08-17T14:21:21.016Z,22.35
2022-08-17T14:24:23.584Z,20.05
2022-08-17T14:27:26.646Z,21.70
2022-08-17T14:30:30.070Z,20.70
2022-08-17T14:33:32.919Z,19.60
2022-08-17T14:36:35.519Z,20.58
2022-08-17T14:39:38.473Z,19.92
2022-08-17T14:42:41.191Z,19.73
2022-08-17T14:45:43.374Z,17.73
2022-08-17T14:48:45.851Z,17.08
2022-08-17T14:51:48.761Z,17.35
2022-08-17T14:54:51.832Z,26.15
2022-08-17T14:57:54.617Z,23.05
2022-08-17T15:00:57.372Z,20.48
2022-08-17T15:04:00.319Z,23.58
2022-08-17T15:07:03.041Z,23.08
2022-08-17T15:10:05.865Z,20.58
2022-08-17T15:13:08.823Z,26.00
2022-08-17T15:16:11.750Z,27.05
2022-08-17T15:19:14.757Z,25.88
2022-08-17T15:22:18.046Z,24.25
2022-08-17T15:25:20.879Z,24.73
2022-08-17T15:28:23.276Z,22.67
2022-08-17T15:31:32.385Z,20.88
2022-08-17T15:34:35.283Z,22.33
2022-08-17T15:37:38.377Z,23.75
2022-08-17T15:40:41.468Z,23.35
2022-08-17T15:43:44.278Z,24.50
2022-08-17T15:46:47.232Z,24.05
2022-08-17T15:49:57.910Z,22.85
2022-08-17T15:53:02.598Z,24.73
2022-08-17T15:56:05.506Z,22.58
2022-08-17T15:59:08.298Z,22.73
2022-08-17T16:03:14.238Z,21.60
2022-08-17T16:05:33.837Z,22.63
2022-08-17T16:08:37.455Z,21.98
2022-08-17T16:11:40.456Z,22.40
2022-08-17T16:14:43.409Z,21.83
2022-08-17T16:17:46.368Z,19.80
2022-08-17T16:20:49.431Z,20.65
2022-08-17T16:23:52.394Z,20.73
2022-08-17T16:26:55.328Z,20.50
2022-08-17T16:29:58.048Z,19.98
2022-08-17T16:33:01.033Z,18.52
2022-08-17T16:36:03.262Z,18.13
2022-08-17T16:39:05.949Z,17.33
2022-08-17T16:42:08.977Z,16.83
2022-08-17T16:45:11.858Z,17.52
2022-08-17T16:48:14.487Z,15.95
2022-08-17T16:51:17.220Z,16.52
2022-08-17T16:54:20.569Z,18.45
2022-08-17T16:57:22.783Z,17.60
2022-08-17T17:00:25.876Z,17.08
2022-08-17T17:03:28.954Z,16.02
2022-08-17T17:06:31.848Z,18.55
2022-08-17T17:09:35.029Z,19.17
2022-08-17T17:13:02.714Z,18.70
2022-08-17T17:16:00.991Z,17.05
2022-08-17T17:19:04.417Z,17.95
2022-08-17T17:22:07.571Z,18.42
2022-08-17T17:25:10.183Z,18.77
2022-08-17T17:28:13.158Z,18.65
2022-08-17T17:31:16.622Z,18.52
2022-08-17T17:34:19.513Z,18.65
2022-08-17T17:37:22.270Z,18.27
2022-08-17T17:40:24.908Z,18.92
2022-08-17T17:43:38.832Z,19.23
2022-08-17T17:46:41.866Z,19.58
2022-08-17T17:49:44.483Z,19.15
2022-08-17T17:52:47.476Z,18.42
2022-08-17T17:55:50.353Z,18.15
2022-08-17T17:58:53.193Z,19.70
2022-08-17T18:01:55.832Z,19.05
2022-08-17T18:04:58.433Z,17.92
2022-08-17T18:08:04.699Z,19.50
2022-08-17T18:11:09.679Z,20.15
2022-08-17T18:14:13.135Z,19.27
2022-08-17T18:17:16.054Z,18.58
2022-08-17T18:20:18.219Z,18.80
2022-08-17T18:23:23.168Z,18.95
2022-08-17T18:26:33.978Z,18.95
2022-08-17T18:29:37.505Z,18.15
2022-08-17T18:32:41.157Z,19.02
2022-08-17T18:35:44.445Z,19.30
2022-08-17T18:38:46.994Z,19.60
2022-08-17T18:41:49.838Z,18.73
2022-08-17T18:44:55.141Z,18.30
2022-08-17T18:47:58.261Z,18.40
2022-08-17T18:51:01.049Z,19.17
2022-08-17T18:54:04.695Z,18.88
2022-08-17T18:57:07.966Z,18.92
2022-08-17T19:00:10.900Z,18.85
2022-08-17T19:03:18.346Z,18.33
2022-08-17T19:06:20.555Z,18.05
2022-08-17T19:09:23.178Z,15.60
2022-08-17T19:12:27.503Z,13.60
2022-08-17T19:15:30.616Z,12.07
2022-08-17T19:18:33.416Z,11.63
2022-08-17T19:21:37.174Z,10.32
2022-08-17T19:24:47.598Z,9.57
2022-08-17T19:27:50.738Z,9.13
2022-08-17T19:30:59.999Z,9.52
2022-08-17T19:34:03.094Z,8.95
2022-08-17T19:37:05.689Z,8.77
2022-08-17T19:40:08.261Z,8.27
2022-08-17T19:43:11.341Z,7.90
2022-08-17T19:46:14.823Z,7.93
2022-08-17T19:49:18.184Z,8.02
2022-08-17T19:52:21.255Z,8.18
2022-08-17T19:55:24.739Z,8.20
2022-08-17T19:58:27.904Z,7.97
2022-08-17T20:01:34.535Z,7.75
2022-08-17T20:04:37.711Z,7.57
2022-08-17T20:07:40.767Z,7.63
2022-08-17T20:10:43.927Z,7.53
2022-08-17T20:13:49.542Z,7.68
2022-08-17T20:16:52.592Z,7.70
2022-08-17T20:19:55.715Z,7.60
2022-08-17T20:22:58.666Z,7.25
2022-08-17T20:26:01.383Z,7.70
2022-08-17T20:29:03.628Z,7.55
2022-08-17T20:32:06.385Z,7.78
2022-08-17T20:35:09.077Z,8.07
2022-08-17T20:38:11.744Z,7.95
2022-08-17T20:41:14.030Z,7.70
2022-08-17T20:44:17.060Z,7.72
2022-08-17T20:47:22.751Z,8.02
2022-08-17T20:50:29.733Z,7.65
2022-08-17T20:53:33.312Z,7.80
2022-08-17T20:56:36.325Z,7.72
2022-08-17T20:59:38.820Z,7.57
2022-08-17T21:02:40.763Z,7.85
2022-08-17T21:05:42.961Z,7.35
2022-08-17T21:08:45.853Z,8.05
2022-08-17T21:12:02.968Z,7.75
2022-08-17T21:15:07.292Z,7.30
2022-08-17T21:18:10.491Z,7.47
2022-08-17T21:21:17.294Z,8.00
2022-08-17T21:24:20.268Z,7.40
2022-08-17T21:27:23.296Z,7.90
2022-08-17T21:30:26.612Z,8.15
2022-08-17T21:33:30.349Z,7.90
2022-08-17T21:36:33.601Z,7.93
2022-08-17T21:39:36.458Z,7.90
2022-08-17T21:42:39.535Z,8.27
2022-08-17T21:45:42.007Z,7.68
2022-08-17T21:48:44.964Z,7.97
2022-08-17T21:51:50.482Z,8.43
2022-08-17T21:54:53.577Z,7.90
2022-08-17T21:58:14.958Z,8.88
2022-08-17T22:01:17.545Z,8.48
2022-08-17T22:04:19.865Z,8.43
2022-08-17T22:07:22.169Z,8.50
2022-08-17T22:10:25.049Z,8.38
2022-08-17T22:13:29.771Z,8.85
2022-08-17T22:16:32.543Z,8.25
2022-08-17T22:19:35.549Z,8.65
2022-08-17T22:22:38.914Z,8.43
2022-08-17T22:25:41.594Z,8.13
2022-08-17T22:28:44.398Z,8.45
2022-08-17T22:31:47.051Z,8.30
2022-08-17T22:34:49.055Z,8.20
2022-08-17T22:37:52.680Z,8.05
2022-08-17T22:40:55.440Z,8.63
2022-08-17T22:43:58.470Z,8.27
2022-08-17T22:47:01.463Z,7.78
2022-08-17T22:50:04.207Z,8.68
2022-08-17T22:53:07.769Z,8.07
2022-08-17T22:56:11.025Z,8.43
2022-08-17T22:59:13.990Z,8.23
2022-08-17T23:02:16.919Z,8.68
2022-08-17T23:05:20.345Z,8.30
2022-08-17T23:08:22.585Z,8.10
2022-08-17T23:11:42.952Z,8.32
2022-08-17T23:14:46.605Z,7.78
2022-08-17T23:17:49.637Z,8.20
2022-08-17T23:20:52.123Z,7.55
2022-08-17T23:23:54.808Z,7.32
2022-08-17T23:26:56.960Z,7.50
2022-08-17T23:29:59.841Z,7.75
2022-08-17T23:33:03.574Z,7.60
2022-08-17T23:36:06.478Z,7.32
2022-08-17T23:39:09.089Z,7.85
2022-08-17T23:42:12.098Z,7.55
2022-08-17T23:45:14.816Z,7.82
2022-08-17T23:48:28.581Z,7.25
2022-08-17T23:51:39.575Z,7.25
2022-08-17T23:54:42.340Z,7.20
2022-08-17T23:57:45.059Z,6.70
